header
chart

Reported and forecast weather at local airports

Important: not to be used for flight planning purposes.


EGBB METAR fetched   Monday 27th Jan @ 19:46:56
EGBB 271920Z 18005KT 9999 FEW008 04/04 Q0991

EGCC METAR fetched   Monday 27th Jan @ 19:46:48
EGCC 271920Z AUTO VRB04KT 9999 NCD 04/03 Q0990

EGGP METAR fetched   Monday 27th Jan @ 19:46:50
EGGP 271920Z 15008KT 120V180 9999 FEW017 SCT041 05/04 Q0989

EGNH METAR fetched   Monday 27th Jan @ 19:46:52
EGNH 271920Z 16010KT 9999 -RA SCT024 05/03 Q0989

EGNM METAR fetched   Monday 27th Jan @ 19:46:54
EGNM 271920Z 14006KT 9999 FEW021 SCT038 03/01 Q0990

EGOV METAR fetched   Monday 27th Jan @ 19:46:58
EGOV 271850Z 18013KT 9999 SCT012 BKN031 BKN080 05/04 Q0988 RMK GRN


EGBB TAF fetched   Monday 27th Jan @ 19:46:57
TAF EGBB 271706Z 2718/2818 19007KT 9999 SCT030 PROB30 TEMPO 2718/2720 4000 SHRA BKN009 TEMPO 2720/2803 6000 SHRA BKN009 BECMG 2803/2806 26010KT PROB30 TEMPO 2803/2808 6000 SHRA -RASN BKN007 PROB30 TEMPO 2812/2818 6000 SHRA

EGCC TAF fetched   Monday 27th Jan @ 19:46:49
TAF EGCC 271657Z 2718/2824 19006KT 9999 FEW018 PROB30 TEMPO 2718/2721 8000 SHRA BKN014 TEMPO 2721/2803 6000 SHRA PROB30 TEMPO 2721/2803 20015G25KT 4000 +SHRA BKN012 BECMG 2803/2806 26012KT TEMPO 2803/2811 26018G28KT 4000 SHRASN BKN006 PROB40 TEMPO 2803/2811 1400 SHSN BKN003 PROB30 TEMPO 2811/2824 7000 SHRA

EGGP TAF fetched   Monday 27th Jan @ 19:46:51
TAF EGGP 271657Z 2718/2818 20008KT 9999 SCT035 PROB30 TEMPO 2718/2720 8000 SHRA BKN014 TEMPO 2720/2802 7000 SHRA PROB30 TEMPO 2720/2802 20015G25KT 4000 +SHRA BKN014 BECMG 2802/2805 26015KT TEMPO 2802/2810 27018G30KT 6000 SHRA BKN009 PROB30 TEMPO 2802/2810 1800 SHRASN BKN004 PROB30 TEMPO 2810/2818 26015G25KT 7000 SHRA

EGNM TAF fetched   Monday 27th Jan @ 19:46:55
TAF TAF EGNM 271657Z 2718/2818 16007KT 9999 FEW015 TEMPO 2723/2803 6000 RA SHRA BKN004 BECMG 2800/2803 23015KT TEMPO 2803/2815 26018G30KT 4000 SHRASN BKN004

EGOV TAF fetched   Monday 27th Jan @ 19:46:59
TAF TAF EGOV 190525Z 1906/1918 04008KT CAVOK PROB30 TEMPO 1906/1912 6000 SHRA TEMPO 1912/1915 4000 +SHRA SCT020 BKN030CB PROB30 TEMPO 1913/1915 VRBG20G30KT 2500 TSGR BKN012

Every effort is made to ensure that this information is free from errors but as it is provided by a third party the accuracy of the reports cannot be guaranteed.